createdAt,value
2023-05-04T00:02:40.781Z,10.94
2023-05-04T00:06:23.612Z,10.94
2023-05-04T00:10:07.984Z,10.88
2023-05-04T00:13:52.366Z,10.82
2023-05-04T00:17:35.097Z,10.72
2023-05-04T00:21:17.909Z,10.65
2023-05-04T00:25:00.641Z,10.60
2023-05-04T00:28:43.333Z,10.52
2023-05-04T00:32:27.688Z,10.48
2023-05-04T00:36:10.801Z,10.45
2023-05-04T00:39:53.631Z,10.43
2023-05-04T00:43:36.358Z,10.40
2023-05-04T00:47:19.956Z,10.33
2023-05-04T00:51:04.214Z,10.30
2023-05-04T00:54:47.903Z,10.31
2023-05-04T00:58:30.929Z,10.30
2023-05-04T01:02:13.708Z,10.28
2023-05-04T01:06:05.916Z,10.22
2023-05-04T01:09:52.132Z,10.24
2023-05-04T01:13:36.092Z,10.24
2023-05-04T01:17:18.801Z,10.22
2023-05-04T01:21:01.493Z,10.22
2023-05-04T01:24:45.718Z,10.22
2023-05-04T01:28:34.619Z,10.19
2023-05-04T01:32:19.161Z,10.15
2023-05-04T01:36:02.273Z,10.14
2023-05-04T01:39:46.381Z,10.10
2023-05-04T01:43:29.150Z,10.07
2023-05-04T01:47:11.947Z,10.05
2023-05-04T01:50:55.676Z,10.03
2023-05-04T01:54:38.472Z,9.99
2023-05-04T01:58:22.730Z,9.96
2023-05-04T02:02:05.611Z,9.94
2023-05-04T02:05:48.309Z,9.90
2023-05-04T02:09:31.780Z,9.88
2023-05-04T02:13:14.521Z,9.85
2023-05-04T02:16:58.893Z,9.80
2023-05-04T02:20:41.921Z,9.76
2023-05-04T02:24:24.696Z,9.72
2023-05-04T02:28:07.488Z,9.69
2023-05-04T02:31:50.567Z,9.64
2023-05-04T02:35:34.664Z,9.61
2023-05-04T02:39:17.493Z,9.58
2023-05-04T02:43:00.270Z,9.55
2023-05-04T02:46:44.083Z,9.51
2023-05-04T02:50:26.733Z,9.48
2023-05-04T02:54:10.752Z,9.47
2023-05-04T02:57:53.419Z,9.45
2023-05-04T03:01:36.220Z,9.42
2023-05-04T03:05:18.928Z,9.39
2023-05-04T03:09:01.910Z,9.38
2023-05-04T03:12:46.358Z,9.32
2023-05-04T03:16:29.210Z,9.25
2023-05-04T03:20:14.063Z,9.20
2023-05-04T03:23:59.329Z,9.16
2023-05-04T03:27:42.077Z,9.14
2023-05-04T03:31:26.278Z,9.13
2023-05-04T03:35:09.805Z,9.09
2023-05-04T03:38:52.491Z,9.07
2023-05-04T03:42:35.178Z,9.00
2023-05-04T03:46:17.886Z,8.97
2023-05-04T03:50:02.606Z,8.94
2023-05-04T03:53:45.711Z,8.86
2023-05-04T03:57:28.469Z,8.80
2023-05-04T04:01:11.132Z,8.84
2023-05-04T04:04:53.795Z,8.94
2023-05-04T04:08:37.899Z,8.99
2023-05-04T04:12:20.855Z,9.02
2023-05-04T04:16:03.663Z,9.01
2023-05-04T04:19:46.382Z,9.03
2023-05-04T04:23:29.133Z,9.02
2023-05-04T04:27:13.732Z,9.02
2023-05-04T04:30:56.758Z,9.02
2023-05-04T04:34:39.765Z,9.07
2023-05-04T04:38:22.443Z,9.07
2023-05-04T04:42:05.116Z,9.07
2023-05-04T04:45:49.513Z,9.10
2023-05-04T04:49:32.276Z,9.11
2023-05-04T04:53:14.900Z,9.08
2023-05-04T04:57:00.587Z,9.05
2023-05-04T05:00:45.310Z,9.02
2023-05-04T05:04:29.663Z,9.02
2023-05-04T05:08:12.337Z,9.03
2023-05-04T05:11:55.014Z,9.10
2023-05-04T05:15:37.696Z,9.13
2023-05-04T05:19:20.515Z,9.13
2023-05-04T05:23:05.341Z,9.10
2023-05-04T05:26:48.338Z,9.25
2023-05-04T05:30:31.292Z,11.49
2023-05-04T05:34:14.008Z,11.67
2023-05-04T05:37:57.060Z,11.21
2023-05-04T05:41:41.242Z,10.97
2023-05-04T05:45:24.164Z,10.70
2023-05-04T05:49:07.438Z,10.57
2023-05-04T05:52:50.311Z,10.49
2023-05-04T05:56:32.984Z,10.32
2023-05-04T06:00:18.637Z,10.15
2023-05-04T06:04:04.061Z,10.07
2023-05-04T06:07:47.065Z,10.04
2023-05-04T06:11:29.771Z,9.99
2023-05-04T06:15:14.412Z,10.02
2023-05-04T06:18:58.418Z,10.07
2023-05-04T06:22:41.165Z,10.12
2023-05-04T06:26:23.827Z,10.17
2023-05-04T06:30:08.162Z,10.24
2023-05-04T06:33:51.181Z,10.31
2023-05-04T06:37:35.446Z,10.41
2023-05-04T06:41:18.227Z,10.55
2023-05-04T06:45:01.125Z,10.64
2023-05-04T06:48:43.813Z,10.73
2023-05-04T06:52:29.582Z,10.88
2023-05-04T06:56:13.690Z,11.02
2023-05-04T06:59:56.384Z,11.12
2023-05-04T07:03:39.326Z,11.20
2023-05-04T07:07:22.199Z,11.30
2023-05-04T07:11:05.480Z,11.36
2023-05-04T07:14:49.769Z,11.44
2023-05-04T07:18:32.572Z,11.60
2023-05-04T07:22:15.251Z,11.72
2023-05-04T07:25:57.957Z,11.81
2023-05-04T07:29:41.681Z,11.91
2023-05-04T07:33:26.628Z,12.02
2023-05-04T07:37:09.798Z,12.18
2023-05-04T07:40:52.744Z,12.30
2023-05-04T07:44:35.536Z,12.45
2023-05-04T07:48:18.292Z,12.59
2023-05-04T07:52:02.403Z,12.68
2023-05-04T07:55:45.138Z,12.82
2023-05-04T07:59:27.806Z,12.95
2023-05-04T08:03:11.054Z,13.04
2023-05-04T08:06:53.877Z,13.13
2023-05-04T08:10:38.748Z,13.22
2023-05-04T08:14:21.870Z,13.35
2023-05-04T08:18:04.640Z,13.43
2023-05-04T08:21:47.437Z,13.47
2023-05-04T08:25:30.090Z,13.53
2023-05-04T08:29:14.244Z,13.60
2023-05-04T08:33:00.409Z,13.64
2023-05-04T08:36:43.159Z,13.70
2023-05-04T08:40:25.860Z,13.83
2023-05-04T08:44:10.119Z,13.94
2023-05-04T08:47:54.297Z,14.10
2023-05-04T08:51:37.454Z,14.16
2023-05-04T08:55:20.886Z,14.18
2023-05-04T08:59:03.919Z,14.24
2023-05-04T09:02:47.124Z,14.35
2023-05-04T09:06:32.592Z,14.47
2023-05-04T09:10:15.399Z,14.53
2023-05-04T09:13:58.317Z,14.63
2023-05-04T09:17:50.934Z,14.75
2023-05-04T09:21:41.319Z,14.86
2023-05-04T09:25:24.419Z,14.85
2023-05-04T09:29:13.875Z,14.88
2023-05-04T09:32:57.246Z,14.99
2023-05-04T09:36:42.117Z,15.08
2023-05-04T09:40:32.562Z,15.15
2023-05-04T09:44:22.462Z,15.24
2023-05-04T09:48:16.298Z,15.35
2023-05-04T09:52:02.509Z,15.60
2023-05-04T09:55:46.833Z,15.63
2023-05-04T09:59:30.496Z,15.71
2023-05-04T10:03:14.367Z,15.81
2023-05-04T10:06:57.185Z,15.89
2023-05-04T10:10:41.404Z,15.95
2023-05-04T10:14:25.066Z,16.02
2023-05-04T10:18:16.528Z,16.06
2023-05-04T10:22:09.221Z,16.11
2023-05-04T10:26:30.298Z,16.17
2023-05-04T10:30:16.813Z,16.23
2023-05-04T10:33:59.530Z,16.25
2023-05-04T10:37:51.832Z,16.24
2023-05-04T10:41:34.537Z,16.31
2023-05-04T10:45:18.840Z,16.49
2023-05-04T10:49:01.700Z,16.56
2023-05-04T10:52:47.977Z,16.63
2023-05-04T10:56:31.168Z,16.66
2023-05-04T11:00:15.085Z,16.73
2023-05-04T11:03:59.620Z,16.78
2023-05-04T11:07:42.336Z,16.81
2023-05-04T11:11:25.396Z,16.87
2023-05-04T11:15:09.317Z,16.98
2023-05-04T11:18:52.082Z,17.06
2023-05-04T11:22:36.190Z,17.17
2023-05-04T11:26:18.939Z,17.21
2023-05-04T11:30:03.044Z,17.26
2023-05-04T11:33:48.071Z,17.34
2023-05-04T11:37:30.944Z,17.45
2023-05-04T11:41:15.053Z,17.54
2023-05-04T11:44:57.846Z,17.59
2023-05-04T11:48:40.956Z,17.67
2023-05-04T11:52:24.218Z,17.74
2023-05-04T11:56:08.767Z,17.82
2023-05-04T11:59:52.826Z,17.93
2023-05-04T12:03:48.608Z,18.02
2023-05-04T12:07:37.846Z,18.07
2023-05-04T12:11:25.911Z,18.17
2023-05-04T12:15:11.333Z,18.31
2023-05-04T12:19:02.891Z,18.49
2023-05-04T12:22:45.878Z,18.59
2023-05-04T12:26:28.872Z,18.71
2023-05-04T12:30:14.164Z,18.85
2023-05-04T12:33:56.859Z,18.92
2023-05-04T12:37:39.575Z,19.12
2023-05-04T12:41:22.554Z,19.28
2023-05-04T12:45:06.521Z,19.49
2023-05-04T12:48:50.779Z,19.70
2023-05-04T12:52:33.533Z,19.93
2023-05-04T12:56:16.293Z,20.15
2023-05-04T12:59:59.169Z,20.33
2023-05-04T13:03:42.071Z,20.55
2023-05-04T13:07:26.351Z,20.83
2023-05-04T13:11:09.012Z,21.08
2023-05-04T13:14:55.332Z,21.36
2023-05-04T13:18:38.217Z,21.59
2023-05-04T13:22:20.905Z,21.87
2023-05-04T13:26:05.020Z,22.15
2023-05-04T13:29:47.722Z,22.33
2023-05-04T13:33:31.049Z,22.57
2023-05-04T13:37:18.165Z,22.78
2023-05-04T13:41:00.903Z,23.01
2023-05-04T13:44:45.662Z,23.33
2023-05-04T13:48:28.363Z,23.62
2023-05-04T13:52:11.532Z,23.91
2023-05-04T13:55:54.149Z,24.15
2023-05-04T13:59:36.771Z,24.40
2023-05-04T14:03:20.890Z,24.56
2023-05-04T14:07:03.921Z,24.81
2023-05-04T14:10:46.615Z,24.93
2023-05-04T14:14:29.720Z,25.11
2023-05-04T14:18:12.903Z,25.21
2023-05-04T14:21:56.937Z,25.34
2023-05-04T14:25:41.983Z,25.26
2023-05-04T14:29:24.709Z,25.11
2023-05-04T14:33:07.412Z,24.96
2023-05-04T14:36:51.721Z,24.90
2023-05-04T14:40:37.008Z,25.03
2023-05-04T14:44:22.524Z,25.23
2023-05-04T14:48:05.840Z,25.56
2023-05-04T14:51:49.086Z,25.91
2023-05-04T14:55:33.481Z,25.95
2023-05-04T14:59:19.659Z,26.26
2023-05-04T15:03:02.584Z,26.51
2023-05-04T15:06:45.368Z,26.68
2023-05-04T15:10:28.040Z,26.81
2023-05-04T15:14:10.692Z,26.88
2023-05-04T15:17:54.831Z,27.00
2023-05-04T15:21:37.569Z,27.22
2023-05-04T15:25:23.317Z,27.49
2023-05-04T15:29:06.991Z,27.34
2023-05-04T15:32:49.734Z,27.16
2023-05-04T15:36:33.766Z,26.94
2023-05-04T15:40:16.452Z,27.21
2023-05-04T15:43:59.580Z,27.65
2023-05-04T15:47:42.378Z,27.93
2023-05-04T15:51:25.074Z,27.98
2023-05-04T15:55:24.460Z,28.07
2023-05-04T15:59:08.284Z,28.45
2023-05-04T16:02:51.019Z,29.43
2023-05-04T16:06:33.707Z,30.60
2023-05-04T16:10:17.818Z,31.36
2023-05-04T16:14:00.484Z,31.74
2023-05-04T16:17:43.194Z,31.90
2023-05-04T16:21:25.974Z,32.19
2023-05-04T16:25:11.228Z,32.29
2023-05-04T16:28:56.620Z,32.16
2023-05-04T16:32:39.416Z,32.08
2023-05-04T16:36:22.128Z,31.72
2023-05-04T16:40:13.503Z,31.16
2023-05-04T16:43:57.532Z,30.59
2023-05-04T16:47:40.222Z,30.00
2023-05-04T16:51:23.028Z,29.09
2023-05-04T16:55:09.029Z,27.26
2023-05-04T16:58:53.434Z,25.80
2023-05-04T17:02:37.691Z,25.06
2023-05-04T17:06:20.468Z,24.40
2023-05-04T17:10:06.925Z,24.21
2023-05-04T17:13:49.741Z,24.03
2023-05-04T17:17:32.476Z,23.63
2023-05-04T17:21:16.610Z,23.14
2023-05-04T17:24:59.275Z,22.58
2023-05-04T17:28:42.024Z,21.98
2023-05-04T17:32:24.757Z,21.84
2023-05-04T17:36:08.159Z,21.57
2023-05-04T17:39:52.218Z,21.34
2023-05-04T17:43:34.916Z,21.24
2023-05-04T17:47:17.569Z,21.15
2023-05-04T17:51:00.651Z,20.96
2023-05-04T17:54:43.314Z,20.78
2023-05-04T17:58:27.381Z,20.69
2023-05-04T18:02:10.073Z,20.51
2023-05-04T18:05:52.783Z,20.27
2023-05-04T18:09:35.442Z,20.68
2023-05-04T18:13:18.271Z,20.89
2023-05-04T18:17:02.472Z,20.59
2023-05-04T18:20:45.233Z,20.34
2023-05-04T18:24:27.904Z,20.11
2023-05-04T18:28:10.630Z,19.87
2023-05-04T18:31:53.369Z,19.68
2023-05-04T18:35:37.423Z,19.51
2023-05-04T18:39:20.299Z,19.33
2023-05-04T18:43:03.039Z,19.08
2023-05-04T18:46:46.094Z,18.89
2023-05-04T18:50:28.793Z,18.75
2023-05-04T18:54:14.881Z,18.61
2023-05-04T18:57:57.648Z,18.46
2023-05-04T19:01:40.447Z,18.37
2023-05-04T19:05:23.288Z,18.23
2023-05-04T19:09:07.959Z,18.08
2023-05-04T19:12:53.197Z,17.97
2023-05-04T19:16:35.947Z,17.85
2023-05-04T19:20:19.467Z,17.73
2023-05-04T19:24:02.319Z,17.58
2023-05-04T19:27:45.622Z,17.47
2023-05-04T19:31:30.139Z,17.37
2023-05-04T19:35:14.365Z,17.24
2023-05-04T19:38:57.373Z,17.13
2023-05-04T19:42:46.111Z,17.03
2023-05-04T19:46:31.952Z,16.92
2023-05-04T19:50:16.359Z,16.81
2023-05-04T19:53:59.222Z,16.64
2023-05-04T19:57:41.923Z,16.52
2023-05-04T20:01:25.085Z,16.45
2023-05-04T20:05:09.776Z,16.40
2023-05-04T20:08:53.860Z,16.31
2023-05-04T20:12:36.630Z,16.27
2023-05-04T20:16:19.552Z,16.20
2023-05-04T20:20:03.769Z,16.13
2023-05-04T20:23:47.796Z,16.06
2023-05-04T20:27:30.687Z,16.00
2023-05-04T20:31:13.377Z,15.86
2023-05-04T20:34:56.148Z,15.79
2023-05-04T20:38:39.809Z,15.72
2023-05-04T20:42:23.871Z,15.62
2023-05-04T20:46:06.733Z,15.59
2023-05-04T20:49:49.483Z,15.61
2023-05-04T20:53:36.357Z,15.59
2023-05-04T20:57:19.087Z,15.56
2023-05-04T21:01:05.257Z,15.52
2023-05-04T21:04:48.642Z,15.47
2023-05-04T21:08:31.365Z,15.46
2023-05-04T21:12:14.273Z,15.43
2023-05-04T21:15:59.571Z,15.39
2023-05-04T21:19:43.723Z,15.37
2023-05-04T21:23:26.455Z,15.37
2023-05-04T21:27:09.142Z,15.35
2023-05-04T21:30:51.981Z,15.35
2023-05-04T21:34:34.682Z,15.33
2023-05-04T21:38:21.167Z,15.22
2023-05-04T21:42:05.087Z,15.15
2023-05-04T21:45:47.828Z,15.10
2023-05-04T21:49:30.487Z,15.08
2023-05-04T21:53:13.150Z,15.06
2023-05-04T21:56:57.230Z,15.02
2023-05-04T22:00:39.993Z,14.97
2023-05-04T22:04:22.858Z,14.95
2023-05-04T22:08:05.558Z,14.89
2023-05-04T22:11:48.552Z,14.85
2023-05-04T22:15:46.389Z,14.83
2023-05-04T22:19:32.432Z,14.77
2023-05-04T22:23:15.187Z,14.73
2023-05-04T22:27:00.321Z,14.64
2023-05-04T22:30:44.552Z,14.54
2023-05-04T22:34:27.505Z,14.47
2023-05-04T22:38:10.906Z,14.48
2023-05-04T22:41:53.795Z,14.40
2023-05-04T22:45:40.220Z,14.29
2023-05-04T22:49:24.376Z,14.20
2023-05-04T22:53:07.272Z,14.13
2023-05-04T22:56:51.024Z,14.09
2023-05-04T23:00:33.748Z,14.05
2023-05-04T23:04:19.120Z,14.01
2023-05-04T23:08:03.737Z,13.98
2023-05-04T23:11:48.543Z,13.90
2023-05-04T23:15:32.722Z,13.84
2023-05-04T23:19:15.359Z,13.82
2023-05-04T23:22:58.215Z,13.76
2023-05-04T23:26:42.238Z,13.74
2023-05-04T23:30:24.884Z,13.72
2023-05-04T23:34:07.713Z,13.75
2023-05-04T23:37:50.399Z,13.76
2023-05-04T23:41:33.267Z,13.76
2023-05-04T23:45:17.438Z,13.57
2023-05-04T23:49:00.119Z,13.36
2023-05-04T23:52:42.812Z,13.27
2023-05-04T23:56:25.450Z,13.19
